sensor_id;sensor_type;location;lat;lon;timestamp;P1;durP1;ratioP1;P2;durP2;ratioP2
79371;SDS011;68914;51.262;6.802;2023-07-20T00:01:11;7.63;;;3.70;;
79371;SDS011;68914;51.262;6.802;2023-07-20T00:02:11;11.43;;;3.97;;
79371;SDS011;68914;51.262;6.802;2023-07-20T00:03:12;7.93;;;3.97;;
79371;SDS011;68914;51.262;6.802;2023-07-20T00:04:19;8.00;;;3.70;;
79371;SDS011;68914;51.262;6.802;2023-07-20T00:06:51;8.52;;;3.70;;
79371;SDS011;68914;51.262;6.802;2023-07-20T00:07:55;7.55;;;3.70;;
79371;SDS011;68914;51.262;6.802;2023-07-20T00:08:55;8.27;;;3.63;;
79371;SDS011;68914;51.262;6.802;2023-07-20T00:09:56;9.60;;;3.60;;
79371;SDS011;68914;51.262;6.802;2023-07-20T00:10:57;8.35;;;3.72;;
79371;SDS011;68914;51.262;6.802;2023-07-20T00:11:58;7.90;;;4.10;;
79371;SDS011;68914;51.262;6.802;2023-07-20T00:13:00;8.77;;;4.13;;
79371;SDS011;68914;51.262;6.802;2023-07-20T00:14:01;8.00;;;4.00;;
79371;SDS011;68914;51.262;6.802;2023-07-20T00:15:01;8.23;;;3.95;;
79371;SDS011;68914;51.262;6.802;2023-07-20T00:16:14;9.90;;;3.85;;
79371;SDS011;68914;51.262;6.802;2023-07-20T00:17:15;8.95;;;3.92;;
79371;SDS011;68914;51.262;6.802;2023-07-20T00:18:16;8.43;;;3.70;;
79371;SDS011;68914;51.262;6.802;2023-07-20T00:19:16;8.98;;;4.30;;
79371;SDS011;68914;51.262;6.802;2023-07-20T00:20:17;8.73;;;3.80;;
79371;SDS011;68914;51.262;6.802;2023-07-20T00:21:18;8.30;;;3.70;;
79371;SDS011;68914;51.262;6.802;2023-07-20T00:22:18;8.97;;;4.00;;
79371;SDS011;68914;51.262;6.802;2023-07-20T00:23:19;8.20;;;3.85;;
79371;SDS011;68914;51.262;6.802;2023-07-20T00:24:23;8.07;;;3.65;;
79371;SDS011;68914;51.262;6.802;2023-07-20T00:27:10;9.25;;;3.50;;
79371;SDS011;68914;51.262;6.802;2023-07-20T00:28:13;8.25;;;3.50;;
79371;SDS011;68914;51.262;6.802;2023-07-20T00:29:15;7.80;;;3.60;;
79371;SDS011;68914;51.262;6.802;2023-07-20T00:30:16;8.63;;;3.80;;
79371;SDS011;68914;51.262;6.802;2023-07-20T00:31:17;8.63;;;3.97;;
79371;SDS011;68914;51.262;6.802;2023-07-20T00:32:18;8.07;;;3.53;;
79371;SDS011;68914;51.262;6.802;2023-07-20T00:33:19;9.32;;;3.70;;
79371;SDS011;68914;51.262;6.802;2023-07-20T00:34:19;9.37;;;3.90;;
79371;SDS011;68914;51.262;6.802;2023-07-20T00:37:00;8.70;;;4.13;;
79371;SDS011;68914;51.262;6.802;2023-07-20T00:38:01;7.95;;;3.67;;
79371;SDS011;68914;51.262;6.802;2023-07-20T00:39:02;9.13;;;3.90;;
79371;SDS011;68914;51.262;6.802;2023-07-20T00:40:03;8.57;;;3.53;;
79371;SDS011;68914;51.262;6.802;2023-07-20T00:41:07;9.60;;;3.70;;
79371;SDS011;68914;51.262;6.802;2023-07-20T00:42:08;7.22;;;3.47;;
79371;SDS011;68914;51.262;6.802;2023-07-20T00:43:09;9.82;;;3.58;;
79371;SDS011;68914;51.262;6.802;2023-07-20T00:44:09;8.47;;;3.70;;
79371;SDS011;68914;51.262;6.802;2023-07-20T00:45:10;7.78;;;3.60;;
79371;SDS011;68914;51.262;6.802;2023-07-20T00:49:11;8.50;;;3.47;;
79371;SDS011;68914;51.262;6.802;2023-07-20T00:50:12;7.93;;;3.90;;
79371;SDS011;68914;51.262;6.802;2023-07-20T00:51:15;8.88;;;3.60;;
79371;SDS011;68914;51.262;6.802;2023-07-20T00:52:15;9.33;;;3.37;;
79371;SDS011;68914;51.262;6.802;2023-07-20T00:53:17;9.18;;;3.80;;
79371;SDS011;68914;51.262;6.802;2023-07-20T00:54:17;8.05;;;3.65;;
79371;SDS011;68914;51.262;6.802;2023-07-20T00:55:27;7.85;;;3.60;;
79371;SDS011;68914;51.262;6.802;2023-07-20T00:56:28;8.77;;;3.43;;
79371;SDS011;68914;51.262;6.802;2023-07-20T00:57:29;8.63;;;3.60;;
79371;SDS011;68914;51.262;6.802;2023-07-20T00:58:30;6.45;;;3.38;;
79371;SDS011;68914;51.262;6.802;2023-07-20T00:59:31;7.15;;;3.25;;
79371;SDS011;68914;51.262;6.802;2023-07-20T01:00:32;7.50;;;3.67;;
79371;SDS011;68914;51.262;6.802;2023-07-20T01:01:32;8.48;;;3.40;;
79371;SDS011;68914;51.262;6.802;2023-07-20T01:02:33;9.37;;;3.67;;
79371;SDS011;68914;51.262;6.802;2023-07-20T01:03:34;8.07;;;3.58;;
79371;SDS011;68914;51.262;6.802;2023-07-20T01:04:35;7.90;;;3.25;;
79371;SDS011;68914;51.262;6.802;2023-07-20T01:05:56;8.95;;;3.53;;
79371;SDS011;68914;51.262;6.802;2023-07-20T01:07:13;9.10;;;3.73;;
79371;SDS011;68914;51.262;6.802;2023-07-20T01:10:58;9.07;;;3.30;;
79371;SDS011;68914;51.262;6.802;2023-07-20T01:13:24;8.30;;;3.80;;
79371;SDS011;68914;51.262;6.802;2023-07-20T01:14:27;9.00;;;3.88;;
79371;SDS011;68914;51.262;6.802;2023-07-20T01:15:48;7.93;;;3.83;;
79371;SDS011;68914;51.262;6.802;2023-07-20T01:16:50;7.32;;;3.60;;
79371;SDS011;68914;51.262;6.802;2023-07-20T01:17:52;7.28;;;3.63;;
79371;SDS011;68914;51.262;6.802;2023-07-20T01:18:54;7.97;;;3.50;;
79371;SDS011;68914;51.262;6.802;2023-07-20T01:19:55;9.32;;;3.88;;
79371;SDS011;68914;51.262;6.802;2023-07-20T01:20:59;9.82;;;3.85;;
79371;SDS011;68914;51.262;6.802;2023-07-20T01:25:07;9.32;;;3.55;;
79371;SDS011;68914;51.262;6.802;2023-07-20T01:32:12;7.32;;;3.50;;
79371;SDS011;68914;51.262;6.802;2023-07-20T01:33:15;8.30;;;3.78;;
79371;SDS011;68914;51.262;6.802;2023-07-20T01:34:17;9.25;;;3.88;;
79371;SDS011;68914;51.262;6.802;2023-07-20T01:37:02;8.02;;;3.90;;
79371;SDS011;68914;51.262;6.802;2023-07-20T01:38:19;8.88;;;4.10;;
79371;SDS011;68914;51.262;6.802;2023-07-20T01:39:23;7.55;;;3.97;;
79371;SDS011;68914;51.262;6.802;2023-07-20T01:40:24;7.63;;;3.60;;
79371;SDS011;68914;51.262;6.802;2023-07-20T01:41:26;9.30;;;4.00;;
79371;SDS011;68914;51.262;6.802;2023-07-20T01:42:27;9.38;;;3.80;;
79371;SDS011;68914;51.262;6.802;2023-07-20T01:43:28;8.10;;;3.80;;
79371;SDS011;68914;51.262;6.802;2023-07-20T01:44:28;9.93;;;4.25;;
79371;SDS011;68914;51.262;6.802;2023-07-20T01:45:35;8.70;;;3.63;;
79371;SDS011;68914;51.262;6.802;2023-07-20T01:46:36;8.68;;;3.78;;
79371;SDS011;68914;51.262;6.802;2023-07-20T01:49:15;7.93;;;3.78;;
79371;SDS011;68914;51.262;6.802;2023-07-20T01:50:16;9.07;;;4.07;;
79371;SDS011;68914;51.262;6.802;2023-07-20T01:51:17;8.10;;;4.00;;
79371;SDS011;68914;51.262;6.802;2023-07-20T01:52:22;8.15;;;3.90;;
79371;SDS011;68914;51.262;6.802;2023-07-20T01:53:25;9.43;;;3.65;;
79371;SDS011;68914;51.262;6.802;2023-07-20T01:54:25;7.97;;;3.85;;
79371;SDS011;68914;51.262;6.802;2023-07-20T01:55:29;9.87;;;3.87;;
79371;SDS011;68914;51.262;6.802;2023-07-20T01:58:01;9.13;;;3.83;;
79371;SDS011;68914;51.262;6.802;2023-07-20T01:59:03;8.73;;;4.15;;
79371;SDS011;68914;51.262;6.802;2023-07-20T02:00:05;8.10;;;3.88;;
79371;SDS011;68914;51.262;6.802;2023-07-20T02:01:14;10.13;;;3.97;;
79371;SDS011;68914;51.262;6.802;2023-07-20T02:02:15;8.80;;;3.97;;
79371;SDS011;68914;51.262;6.802;2023-07-20T02:03:16;10.45;;;4.40;;
79371;SDS011;68914;51.262;6.802;2023-07-20T02:04:16;8.00;;;3.90;;
79371;SDS011;68914;51.262;6.802;2023-07-20T02:05:17;9.00;;;3.95;;
79371;SDS011;68914;51.262;6.802;2023-07-20T02:06:24;9.43;;;4.15;;
79371;SDS011;68914;51.262;6.802;2023-07-20T02:08:56;9.13;;;4.10;;
79371;SDS011;68914;51.262;6.802;2023-07-20T02:09:57;9.65;;;4.30;;
79371;SDS011;68914;51.262;6.802;2023-07-20T02:10:57;10.03;;;3.90;;
79371;SDS011;68914;51.262;6.802;2023-07-20T02:11:58;8.05;;;3.90;;
79371;SDS011;68914;51.262;6.802;2023-07-20T02:12:59;9.60;;;4.00;;
79371;SDS011;68914;51.262;6.802;2023-07-20T02:13:59;8.60;;;3.70;;
79371;SDS011;68914;51.262;6.802;2023-07-20T02:15:00;8.15;;;3.80;;
79371;SDS011;68914;51.262;6.802;2023-07-20T02:16:16;9.38;;;4.00;;
79371;SDS011;68914;51.262;6.802;2023-07-20T02:17:20;9.07;;;3.70;;
79371;SDS011;68914;51.262;6.802;2023-07-20T02:18:21;8.35;;;4.05;;
79371;SDS011;68914;51.262;6.802;2023-07-20T02:19:21;9.43;;;4.17;;
79371;SDS011;68914;51.262;6.802;2023-07-20T02:20:22;8.38;;;3.90;;
79371;SDS011;68914;51.262;6.802;2023-07-20T02:21:23;8.73;;;3.93;;
79371;SDS011;68914;51.262;6.802;2023-07-20T02:22:23;9.73;;;3.75;;
79371;SDS011;68914;51.262;6.802;2023-07-20T02:23:24;9.55;;;4.30;;
79371;SDS011;68914;51.262;6.802;2023-07-20T02:24:25;9.47;;;4.07;;
79371;SDS011;68914;51.262;6.802;2023-07-20T02:26:51;8.05;;;3.75;;
79371;SDS011;68914;51.262;6.802;2023-07-20T02:27:57;9.57;;;3.80;;
79371;SDS011;68914;51.262;6.802;2023-07-20T02:28:59;8.73;;;3.60;;
79371;SDS011;68914;51.262;6.802;2023-07-20T02:30:00;8.65;;;3.80;;
79371;SDS011;68914;51.262;6.802;2023-07-20T02:31:01;9.23;;;3.90;;
79371;SDS011;68914;51.262;6.802;2023-07-20T02:32:02;9.27;;;3.90;;
79371;SDS011;68914;51.262;6.802;2023-07-20T02:33:03;8.05;;;3.92;;
79371;SDS011;68914;51.262;6.802;2023-07-20T02:34:06;9.40;;;4.20;;
79371;SDS011;68914;51.262;6.802;2023-07-20T02:35:06;9.05;;;3.80;;
79371;SDS011;68914;51.262;6.802;2023-07-20T02:36:07;8.63;;;4.03;;
79371;SDS011;68914;51.262;6.802;2023-07-20T02:37:18;8.85;;;3.95;;
79371;SDS011;68914;51.262;6.802;2023-07-20T02:38:19;7.80;;;3.47;;
79371;SDS011;68914;51.262;6.802;2023-07-20T02:39:22;8.27;;;4.00;;
79371;SDS011;68914;51.262;6.802;2023-07-20T02:40:23;8.32;;;3.55;;
79371;SDS011;68914;51.262;6.802;2023-07-20T02:41:23;7.43;;;3.77;;
79371;SDS011;68914;51.262;6.802;2023-07-20T02:42:24;7.93;;;3.67;;
79371;SDS011;68914;51.262;6.802;2023-07-20T02:43:26;10.10;;;3.83;;
79371;SDS011;68914;51.262;6.802;2023-07-20T02:44:27;8.80;;;3.93;;
79371;SDS011;68914;51.262;6.802;2023-07-20T02:45:40;10.20;;;4.20;;
79371;SDS011;68914;51.262;6.802;2023-07-20T02:48:11;8.23;;;4.10;;
79371;SDS011;68914;51.262;6.802;2023-07-20T02:49:12;8.57;;;3.80;;
79371;SDS011;68914;51.262;6.802;2023-07-20T02:50:12;8.88;;;4.20;;
79371;SDS011;68914;51.262;6.802;2023-07-20T02:51:14;8.25;;;3.95;;
79371;SDS011;68914;51.262;6.802;2023-07-20T02:52:15;8.23;;;3.77;;
79371;SDS011;68914;51.262;6.802;2023-07-20T02:53:15;9.55;;;4.25;;
79371;SDS011;68914;51.262;6.802;2023-07-20T02:54:16;9.90;;;4.20;;
79371;SDS011;68914;51.262;6.802;2023-07-20T02:58:17;8.02;;;3.83;;
79371;SDS011;68914;51.262;6.802;2023-07-20T02:59:17;9.17;;;4.20;;
79371;SDS011;68914;51.262;6.802;2023-07-20T03:00:19;8.60;;;4.03;;
79371;SDS011;68914;51.262;6.802;2023-07-20T03:01:20;10.07;;;4.22;;
79371;SDS011;68914;51.262;6.802;2023-07-20T03:02:20;9.10;;;4.20;;
79371;SDS011;68914;51.262;6.802;2023-07-20T03:03:21;9.30;;;3.97;;
79371;SDS011;68914;51.262;6.802;2023-07-20T03:04:22;8.23;;;3.95;;
79371;SDS011;68914;51.262;6.802;2023-07-20T03:07:09;8.80;;;3.85;;
79371;SDS011;68914;51.262;6.802;2023-07-20T03:08:10;10.00;;;3.95;;
79371;SDS011;68914;51.262;6.802;2023-07-20T03:09:11;11.77;;;4.40;;
79371;SDS011;68914;51.262;6.802;2023-07-20T03:10:11;8.17;;;4.17;;
79371;SDS011;68914;51.262;6.802;2023-07-20T03:11:13;8.98;;;4.38;;
79371;SDS011;68914;51.262;6.802;2023-07-20T03:12:15;9.13;;;4.38;;
79371;SDS011;68914;51.262;6.802;2023-07-20T03:13:16;10.93;;;4.35;;
79371;SDS011;68914;51.262;6.802;2023-07-20T03:14:17;10.03;;;4.40;;
79371;SDS011;68914;51.262;6.802;2023-07-20T03:16:43;10.60;;;4.45;;
79371;SDS011;68914;51.262;6.802;2023-07-20T03:19:18;8.82;;;4.13;;
79371;SDS011;68914;51.262;6.802;2023-07-20T03:20:19;8.57;;;4.30;;
79371;SDS011;68914;51.262;6.802;2023-07-20T03:21:20;10.23;;;4.50;;
79371;SDS011;68914;51.262;6.802;2023-07-20T03:22:20;9.07;;;4.22;;
79371;SDS011;68914;51.262;6.802;2023-07-20T03:23:22;9.85;;;4.60;;
79371;SDS011;68914;51.262;6.802;2023-07-20T03:24:22;8.63;;;4.30;;
79371;SDS011;68914;51.262;6.802;2023-07-20T03:27:11;9.52;;;4.10;;
79371;SDS011;68914;51.262;6.802;2023-07-20T03:29:44;10.35;;;4.32;;
79371;SDS011;68914;51.262;6.802;2023-07-20T03:30:45;9.02;;;4.43;;
79371;SDS011;68914;51.262;6.802;2023-07-20T03:31:46;9.02;;;4.00;;
79371;SDS011;68914;51.262;6.802;2023-07-20T03:32:48;12.70;;;4.57;;
79371;SDS011;68914;51.262;6.802;2023-07-20T03:33:49;12.10;;;4.53;;
79371;SDS011;68914;51.262;6.802;2023-07-20T03:34:50;8.73;;;4.10;;
79371;SDS011;68914;51.262;6.802;2023-07-20T03:36:00;9.98;;;4.50;;
79371;SDS011;68914;51.262;6.802;2023-07-20T03:37:19;8.32;;;4.50;;
79371;SDS011;68914;51.262;6.802;2023-07-20T03:38:20;10.68;;;4.70;;
79371;SDS011;68914;51.262;6.802;2023-07-20T03:39:22;11.10;;;5.00;;
79371;SDS011;68914;51.262;6.802;2023-07-20T03:40:23;11.98;;;4.70;;
79371;SDS011;68914;51.262;6.802;2023-07-20T03:41:25;8.70;;;4.28;;
79371;SDS011;68914;51.262;6.802;2023-07-20T03:42:26;9.45;;;4.60;;
79371;SDS011;68914;51.262;6.802;2023-07-20T03:43:27;12.20;;;5.10;;
79371;SDS011;68914;51.262;6.802;2023-07-20T03:44:28;11.53;;;4.80;;
79371;SDS011;68914;51.262;6.802;2023-07-20T03:45:41;9.80;;;4.90;;
79371;SDS011;68914;51.262;6.802;2023-07-20T03:46:54;10.85;;;5.10;;
79371;SDS011;68914;51.262;6.802;2023-07-20T03:48:13;11.43;;;5.13;;
79371;SDS011;68914;51.262;6.802;2023-07-20T03:49:15;10.50;;;4.45;;
79371;SDS011;68914;51.262;6.802;2023-07-20T03:50:16;10.50;;;4.80;;
79371;SDS011;68914;51.262;6.802;2023-07-20T03:51:16;12.40;;;4.80;;
79371;SDS011;68914;51.262;6.802;2023-07-20T03:52:17;10.07;;;4.47;;
79371;SDS011;68914;51.262;6.802;2023-07-20T03:53:18;12.63;;;4.97;;
79371;SDS011;68914;51.262;6.802;2023-07-20T03:54:19;9.05;;;4.85;;
79371;SDS011;68914;51.262;6.802;2023-07-20T03:55:29;11.13;;;4.93;;
79371;SDS011;68914;51.262;6.802;2023-07-20T03:58:35;10.38;;;4.88;;
79371;SDS011;68914;51.262;6.802;2023-07-20T03:59:37;12.63;;;5.00;;
79371;SDS011;68914;51.262;6.802;2023-07-20T04:00:38;11.07;;;4.80;;
79371;SDS011;68914;51.262;6.802;2023-07-20T04:01:39;11.02;;;4.72;;
79371;SDS011;68914;51.262;6.802;2023-07-20T04:02:40;10.20;;;4.65;;
79371;SDS011;68914;51.262;6.802;2023-07-20T04:03:41;11.00;;;4.95;;
79371;SDS011;68914;51.262;6.802;2023-07-20T04:04:42;9.37;;;4.80;;
79371;SDS011;68914;51.262;6.802;2023-07-20T04:05:51;11.82;;;5.13;;
79371;SDS011;68914;51.262;6.802;2023-07-20T04:07:08;11.70;;;5.10;;
79371;SDS011;68914;51.262;6.802;2023-07-20T04:08:12;12.57;;;5.70;;
79371;SDS011;68914;51.262;6.802;2023-07-20T04:09:31;13.23;;;6.30;;
79371;SDS011;68914;51.262;6.802;2023-07-20T04:10:32;13.77;;;5.85;;
79371;SDS011;68914;51.262;6.802;2023-07-20T04:11:33;14.77;;;6.03;;
79371;SDS011;68914;51.262;6.802;2023-07-20T04:12:34;13.32;;;6.35;;
79371;SDS011;68914;51.262;6.802;2023-07-20T04:13:35;11.35;;;5.65;;
79371;SDS011;68914;51.262;6.802;2023-07-20T04:14:35;14.97;;;5.93;;
79371;SDS011;68914;51.262;6.802;2023-07-20T04:15:45;10.57;;;5.37;;
79371;SDS011;68914;51.262;6.802;2023-07-20T04:17:01;10.23;;;5.60;;
79371;SDS011;68914;51.262;6.802;2023-07-20T04:18:02;12.30;;;5.65;;
79371;SDS011;68914;51.262;6.802;2023-07-20T04:19:02;11.60;;;5.40;;
79371;SDS011;68914;51.262;6.802;2023-07-20T04:20:03;17.93;;;8.83;;
79371;SDS011;68914;51.262;6.802;2023-07-20T04:21:07;18.35;;;8.48;;
79371;SDS011;68914;51.262;6.802;2023-07-20T04:22:08;14.93;;;5.70;;
79371;SDS011;68914;51.262;6.802;2023-07-20T04:23:09;10.55;;;5.95;;
79371;SDS011;68914;51.262;6.802;2023-07-20T04:24:10;12.45;;;5.78;;
79371;SDS011;68914;51.262;6.802;2023-07-20T04:25:11;15.13;;;6.43;;
79371;SDS011;68914;51.262;6.802;2023-07-20T04:27:55;13.40;;;6.53;;
79371;SDS011;68914;51.262;6.802;2023-07-20T04:28:56;11.95;;;5.75;;
79371;SDS011;68914;51.262;6.802;2023-07-20T04:30:12;13.32;;;6.22;;
79371;SDS011;68914;51.262;6.802;2023-07-20T04:31:13;19.08;;;8.68;;
79371;SDS011;68914;51.262;6.802;2023-07-20T04:32:14;16.10;;;6.17;;
79371;SDS011;68914;51.262;6.802;2023-07-20T04:33:15;12.90;;;6.32;;
79371;SDS011;68914;51.262;6.802;2023-07-20T04:34:18;13.25;;;6.10;;
79371;SDS011;68914;51.262;6.802;2023-07-20T04:38:21;13.85;;;6.25;;
79371;SDS011;68914;51.262;6.802;2023-07-20T04:39:27;13.80;;;6.60;;
79371;SDS011;68914;51.262;6.802;2023-07-20T04:40:28;14.57;;;6.00;;
79371;SDS011;68914;51.262;6.802;2023-07-20T04:41:28;13.15;;;6.25;;
79371;SDS011;68914;51.262;6.802;2023-07-20T04:42:31;13.82;;;6.70;;
79371;SDS011;68914;51.262;6.802;2023-07-20T04:43:32;14.87;;;6.60;;
79371;SDS011;68914;51.262;6.802;2023-07-20T04:44:32;13.55;;;6.28;;
79371;SDS011;68914;51.262;6.802;2023-07-20T04:45:51;11.73;;;6.10;;
79371;SDS011;68914;51.262;6.802;2023-07-20T04:47:10;12.73;;;6.20;;
79371;SDS011;68914;51.262;6.802;2023-07-20T04:48:13;13.10;;;6.15;;
79371;SDS011;68914;51.262;6.802;2023-07-20T04:49:22;15.07;;;6.90;;
79371;SDS011;68914;51.262;6.802;2023-07-20T04:50:22;12.95;;;6.45;;
79371;SDS011;68914;51.262;6.802;2023-07-20T04:51:25;13.65;;;6.50;;
79371;SDS011;68914;51.262;6.802;2023-07-20T04:52:28;13.70;;;6.70;;
79371;SDS011;68914;51.262;6.802;2023-07-20T04:53:29;18.35;;;9.85;;
79371;SDS011;68914;51.262;6.802;2023-07-20T04:54:31;18.40;;;10.97;;
79371;SDS011;68914;51.262;6.802;2023-07-20T04:55:48;21.15;;;11.23;;
79371;SDS011;68914;51.262;6.802;2023-07-20T04:57:00;19.58;;;10.70;;
79371;SDS011;68914;51.262;6.802;2023-07-20T04:58:01;17.67;;;9.48;;
79371;SDS011;68914;51.262;6.802;2023-07-20T04:59:03;14.13;;;7.18;;
79371;SDS011;68914;51.262;6.802;2023-07-20T05:00:04;14.63;;;7.33;;
79371;SDS011;68914;51.262;6.802;2023-07-20T05:01:05;16.60;;;7.78;;
79371;SDS011;68914;51.262;6.802;2023-07-20T05:02:09;15.05;;;7.95;;
79371;SDS011;68914;51.262;6.802;2023-07-20T05:03:09;16.73;;;7.37;;
79371;SDS011;68914;51.262;6.802;2023-07-20T05:04:10;14.00;;;7.60;;
79371;SDS011;68914;51.262;6.802;2023-07-20T05:05:11;14.68;;;7.57;;
79371;SDS011;68914;51.262;6.802;2023-07-20T05:06:12;18.60;;;8.17;;
79371;SDS011;68914;51.262;6.802;2023-07-20T05:09:01;14.98;;;7.80;;
79371;SDS011;68914;51.262;6.802;2023-07-20T05:10:02;15.05;;;7.53;;
79371;SDS011;68914;51.262;6.802;2023-07-20T05:11:03;14.02;;;7.45;;
79371;SDS011;68914;51.262;6.802;2023-07-20T05:12:04;14.38;;;7.55;;
79371;SDS011;68914;51.262;6.802;2023-07-20T05:13:05;15.67;;;7.93;;
79371;SDS011;68914;51.262;6.802;2023-07-20T05:14:06;13.57;;;7.40;;
79371;SDS011;68914;51.262;6.802;2023-07-20T05:15:07;17.23;;;8.27;;
79371;SDS011;68914;51.262;6.802;2023-07-20T05:16:09;14.95;;;7.75;;
79371;SDS011;68914;51.262;6.802;2023-07-20T05:17:19;13.70;;;7.30;;
79371;SDS011;68914;51.262;6.802;2023-07-20T05:18:20;15.25;;;7.40;;
79371;SDS011;68914;51.262;6.802;2023-07-20T05:19:21;15.40;;;8.15;;
79371;SDS011;68914;51.262;6.802;2023-07-20T05:20:22;15.32;;;8.68;;
79371;SDS011;68914;51.262;6.802;2023-07-20T05:21:22;18.50;;;9.90;;
79371;SDS011;68914;51.262;6.802;2023-07-20T05:22:23;17.58;;;8.75;;
79371;SDS011;68914;51.262;6.802;2023-07-20T05:23:24;18.63;;;9.40;;
79371;SDS011;68914;51.262;6.802;2023-07-20T05:24:26;29.50;;;17.43;;
79371;SDS011;68914;51.262;6.802;2023-07-20T05:27:26;17.70;;;8.85;;
79371;SDS011;68914;51.262;6.802;2023-07-20T05:28:26;17.63;;;9.57;;
79371;SDS011;68914;51.262;6.802;2023-07-20T05:29:27;20.25;;;9.75;;
79371;SDS011;68914;51.262;6.802;2023-07-20T05:30:28;19.47;;;9.70;;
79371;SDS011;68914;51.262;6.802;2023-07-20T05:31:29;19.27;;;9.90;;
79371;SDS011;68914;51.262;6.802;2023-07-20T05:32:31;18.40;;;10.05;;
79371;SDS011;68914;51.262;6.802;2023-07-20T05:33:32;17.98;;;10.30;;
79371;SDS011;68914;51.262;6.802;2023-07-20T05:34:32;17.80;;;10.23;;
79371;SDS011;68914;51.262;6.802;2023-07-20T05:35:45;19.65;;;10.32;;
79371;SDS011;68914;51.262;6.802;2023-07-20T05:36:46;18.10;;;10.00;;
79371;SDS011;68914;51.262;6.802;2023-07-20T05:39:21;21.02;;;10.00;;
79371;SDS011;68914;51.262;6.802;2023-07-20T05:40:21;19.23;;;10.23;;
79371;SDS011;68914;51.262;6.802;2023-07-20T05:41:22;20.40;;;9.73;;
79371;SDS011;68914;51.262;6.802;2023-07-20T05:42:23;16.75;;;10.00;;
79371;SDS011;68914;51.262;6.802;2023-07-20T05:43:23;19.00;;;10.00;;
79371;SDS011;68914;51.262;6.802;2023-07-20T05:44:24;20.27;;;10.20;;
79371;SDS011;68914;51.262;6.802;2023-07-20T05:45:25;18.10;;;10.00;;
79371;SDS011;68914;51.262;6.802;2023-07-20T05:46:25;20.35;;;11.85;;
79371;SDS011;68914;51.262;6.802;2023-07-20T05:47:26;17.87;;;9.97;;
79371;SDS011;68914;51.262;6.802;2023-07-20T05:48:26;17.55;;;11.15;;
79371;SDS011;68914;51.262;6.802;2023-07-20T05:49:27;17.70;;;10.05;;
79371;SDS011;68914;51.262;6.802;2023-07-20T05:50:34;15.80;;;9.87;;
79371;SDS011;68914;51.262;6.802;2023-07-20T05:51:34;19.20;;;10.13;;
79371;SDS011;68914;51.262;6.802;2023-07-20T05:52:35;15.80;;;9.98;;
79371;SDS011;68914;51.262;6.802;2023-07-20T05:53:38;16.85;;;9.93;;
79371;SDS011;68914;51.262;6.802;2023-07-20T05:54:38;15.70;;;8.97;;
79371;SDS011;68914;51.262;6.802;2023-07-20T05:55:51;15.25;;;9.30;;
79371;SDS011;68914;51.262;6.802;2023-07-20T05:57:04;16.40;;;9.77;;
79371;SDS011;68914;51.262;6.802;2023-07-20T05:58:05;18.30;;;10.03;;
79371;SDS011;68914;51.262;6.802;2023-07-20T05:59:06;16.77;;;9.65;;
79371;SDS011;68914;51.262;6.802;2023-07-20T06:00:07;17.05;;;9.90;;
79371;SDS011;68914;51.262;6.802;2023-07-20T06:01:43;16.65;;;9.27;;
79371;SDS011;68914;51.262;6.802;2023-07-20T06:02:43;20.93;;;9.37;;
79371;SDS011;68914;51.262;6.802;2023-07-20T06:03:44;14.20;;;8.55;;
79371;SDS011;68914;51.262;6.802;2023-07-20T06:04:45;15.80;;;9.43;;
79371;SDS011;68914;51.262;6.802;2023-07-20T06:05:45;17.37;;;10.17;;
79371;SDS011;68914;51.262;6.802;2023-07-20T06:06:46;16.15;;;9.30;;
79371;SDS011;68914;51.262;6.802;2023-07-20T06:07:48;15.45;;;9.20;;
79371;SDS011;68914;51.262;6.802;2023-07-20T06:08:48;15.87;;;9.20;;
79371;SDS011;68914;51.262;6.802;2023-07-20T06:09:49;16.08;;;9.38;;
79371;SDS011;68914;51.262;6.802;2023-07-20T06:10:50;17.60;;;10.47;;
79371;SDS011;68914;51.262;6.802;2023-07-20T06:11:52;13.43;;;8.85;;
79371;SDS011;68914;51.262;6.802;2023-07-20T06:12:52;15.27;;;9.30;;
79371;SDS011;68914;51.262;6.802;2023-07-20T06:13:53;14.00;;;8.75;;
79371;SDS011;68914;51.262;6.802;2023-07-20T06:14:54;13.85;;;8.63;;
79371;SDS011;68914;51.262;6.802;2023-07-20T06:16:00;14.10;;;8.50;;
79371;SDS011;68914;51.262;6.802;2023-07-20T06:17:01;14.75;;;8.60;;
79371;SDS011;68914;51.262;6.802;2023-07-20T06:18:02;12.93;;;7.90;;
79371;SDS011;68914;51.262;6.802;2023-07-20T06:19:04;13.27;;;8.57;;
79371;SDS011;68914;51.262;6.802;2023-07-20T06:20:04;13.00;;;8.07;;
79371;SDS011;68914;51.262;6.802;2023-07-20T06:21:07;12.93;;;8.45;;
79371;SDS011;68914;51.262;6.802;2023-07-20T06:22:07;14.57;;;8.35;;
79371;SDS011;68914;51.262;6.802;2023-07-20T06:23:08;12.10;;;7.87;;
79371;SDS011;68914;51.262;6.802;2023-07-20T06:24:09;12.73;;;8.02;;
79371;SDS011;68914;51.262;6.802;2023-07-20T06:25:22;11.90;;;7.87;;
79371;SDS011;68914;51.262;6.802;2023-07-20T06:26:25;11.52;;;7.93;;
79371;SDS011;68914;51.262;6.802;2023-07-20T06:27:44;11.05;;;7.78;;
79371;SDS011;68914;51.262;6.802;2023-07-20T06:28:44;13.05;;;8.18;;
79371;SDS011;68914;51.262;6.802;2023-07-20T06:29:45;12.13;;;7.88;;
79371;SDS011;68914;51.262;6.802;2023-07-20T06:30:46;13.43;;;8.13;;
79371;SDS011;68914;51.262;6.802;2023-07-20T06:31:47;12.30;;;8.30;;
79371;SDS011;68914;51.262;6.802;2023-07-20T06:32:47;14.13;;;8.80;;
79371;SDS011;68914;51.262;6.802;2023-07-20T06:33:48;13.02;;;8.70;;
79371;SDS011;68914;51.262;6.802;2023-07-20T06:34:49;12.38;;;8.07;;
79371;SDS011;68914;51.262;6.802;2023-07-20T06:35:49;18.77;;;11.30;;
79371;SDS011;68914;51.262;6.802;2023-07-20T06:37:05;15.82;;;10.82;;
79371;SDS011;68914;51.262;6.802;2023-07-20T06:38:06;22.98;;;15.55;;
79371;SDS011;68914;51.262;6.802;2023-07-20T06:39:08;16.17;;;10.38;;
79371;SDS011;68914;51.262;6.802;2023-07-20T06:40:08;13.67;;;8.60;;
79371;SDS011;68914;51.262;6.802;2023-07-20T06:41:09;12.93;;;8.43;;
79371;SDS011;68914;51.262;6.802;2023-07-20T06:42:10;13.02;;;7.85;;
79371;SDS011;68914;51.262;6.802;2023-07-20T06:43:11;13.50;;;7.97;;
79371;SDS011;68914;51.262;6.802;2023-07-20T06:44:11;11.80;;;7.32;;
79371;SDS011;68914;51.262;6.802;2023-07-20T06:45:24;13.23;;;8.00;;
79371;SDS011;68914;51.262;6.802;2023-07-20T06:46:25;10.65;;;6.95;;
79371;SDS011;68914;51.262;6.802;2023-07-20T06:47:26;11.88;;;7.07;;
79371;SDS011;68914;51.262;6.802;2023-07-20T06:48:27;12.63;;;6.73;;
79371;SDS011;68914;51.262;6.802;2023-07-20T06:49:27;11.57;;;6.75;;
79371;SDS011;68914;51.262;6.802;2023-07-20T06:51:57;13.80;;;9.18;;
79371;SDS011;68914;51.262;6.802;2023-07-20T06:53:13;11.60;;;6.80;;
79371;SDS011;68914;51.262;6.802;2023-07-20T06:54:29;10.98;;;6.22;;
79371;SDS011;68914;51.262;6.802;2023-07-20T06:55:29;10.73;;;6.78;;
79371;SDS011;68914;51.262;6.802;2023-07-20T06:56:30;10.68;;;6.40;;
79371;SDS011;68914;51.262;6.802;2023-07-20T06:57:31;11.70;;;6.30;;
79371;SDS011;68914;51.262;6.802;2023-07-20T06:58:31;11.88;;;7.03;;
79371;SDS011;68914;51.262;6.802;2023-07-20T06:59:33;10.50;;;6.32;;
79371;SDS011;68914;51.262;6.802;2023-07-20T07:00:34;10.97;;;6.60;;
79371;SDS011;68914;51.262;6.802;2023-07-20T07:01:35;12.02;;;6.63;;
79371;SDS011;68914;51.262;6.802;2023-07-20T07:02:35;10.97;;;6.90;;
79371;SDS011;68914;51.262;6.802;2023-07-20T07:03:36;11.00;;;6.38;;
79371;SDS011;68914;51.262;6.802;2023-07-20T07:04:37;11.93;;;7.03;;
79371;SDS011;68914;51.262;6.802;2023-07-20T07:05:37;14.57;;;9.00;;
79371;SDS011;68914;51.262;6.802;2023-07-20T07:06:38;11.55;;;7.20;;
79371;SDS011;68914;51.262;6.802;2023-07-20T07:07:44;11.00;;;6.80;;
79371;SDS011;68914;51.262;6.802;2023-07-20T07:08:45;17.08;;;11.13;;
79371;SDS011;68914;51.262;6.802;2023-07-20T07:09:46;17.05;;;9.40;;